Details From LBSF - Sofia
To LBBG - Burgas
Flight Number -
Tags Routegen
Created
Modified
Stats Distance 219 nm / 406 km
Max Altitude 0 ft / 0 m
Waypoints 5
Social Downloads 6
Likes 0
Share VATSIM

Download

Looking for another format? Having issues loading an existing format? Contact us
Advertisement - Login to hide

Notes

None

Route

LBSF +42.71_+023.19 +42.85_+023.21 +42.25_+027.09 LBBG

ID Type Via Altitude Latitude Longitude Leg Dist Tot Dist Heading (true) Name
O LBSF APT - 0 ft / 0 m 42.69629˚ 23.38894˚ - 0 nm - -
+42.71_+023.19 DME - 0 ft / 0 m 42.70869˚ 23.19272˚ 8 nm 8 nm 275° / 275° -
+42.85_+023.21 DME - 0 ft / 0 m 42.85287˚ 23.20981˚ 8 nm 17 nm 5° / 5° -
+42.25_+027.09 DME - 0 ft / 0 m 42.24822˚ 27.09211˚ 175 nm 192 nm 101° / 103° -
O LBBG APT - 0 ft / 0 m 42.55983˚ 27.50160˚ 26 nm 219 nm 44° / 44° -

Altitude Profile

Advertisement - Login to hide

Weather


0- 5 10 15 20 25 30 35+ Temperature / ° C

Clouds and Precipitation
Forecast for 2018-05-24 06:00 UTC. Updated 2 hours ago

Ground ~20,000 ft ~40,000 ft Winds

LBSF

Details ICAO LBSF (SOF)
Name Sofia
Region Bulgaria
Timezone Europe/Sofia (UTC+3.0)
Stats Elevation 1,741 ft / 531 m (AMSL)
Location 42.697130° 23.416722°
Runways 1
Magnetic Variation 4.980° E

METAR

LBSF 240630Z 12005KT 9999 FEW050 BKN068 17/12 Q1017 NOSIG

Decode

TAF

TAF LBSF 240500Z 2406/2506 11010KT 9999 SCT030 SCT060 TEMPO 2410/2417 VRB16G26KT 3000 TSRA SCT030CB BKN050 BECMG 2420/2422 VRB04KT CAVOK

Decode

Departure Runways

ID Width Length Bearing (true) Bearing (mag) Surface Threshold Offset Overrun Length
09 148 ft / 45 m 11,801 ft / 3,597 m 93.99° 89.01° Asphalt 984 ft / 300 m 525 ft / 160 m
27 148 ft / 45 m 11,801 ft / 3,597 m 274.02° 269.04° Asphalt 0 ft / 0 m 525 ft / 160 m

LBBG

Details ICAO LBBG (BOJ)
Name Burgas
Region Bulgaria
Timezone Europe/Sofia (UTC+3.0)
Stats Elevation 135 ft / 41 m (AMSL)
Location 42.570130° 27.515240°
Runways 1
Magnetic Variation 5.548° E

METAR

LBBG 240630Z 16005KT 9999 FEW018 21/16 Q1016 NOSIG

Decode

TAF

TAF TAF LBBG 240500Z 2406/2506 VRB04KT 9999 SCT040 BECMG 2407/2409 11012KT BECMG 2419/2421 VRB04KT TEMPO 2501/2505 5000 BR SCT010

Decode

Destination Runways

ID Width Length Bearing (true) Bearing (mag) Surface Threshold Offset Overrun Length
04 148 ft / 45 m 10,502 ft / 3,201 m 44.28° 38.73° Concrete 0 ft / 0 m 190 ft / 58 m
22 148 ft / 45 m 10,502 ft / 3,201 m 224.29° 218.74° Concrete 0 ft / 0 m 190 ft / 58 m

Approach Navaids

Runway Type Ident Frequency Range Bearing (true) Bearing (mag) Slope Elevation
22 Localiser IBG 110.30 MHz 18 nm / 33 km 224.26° 218.72° - 135 ft / 41 m (AMSL)
22 Glidescope IBG 110.30 MHz 10 nm / 19 km 224.28° 218.74° 3.00° 135 ft / 41 m (AMSL)

Popular Alternatives